createdAt,value
2023-04-10T00:00:16.198Z,8.65
2023-04-10T00:02:33.688Z,8.20
2023-04-10T00:04:51.018Z,8.05
2023-04-10T00:07:08.028Z,7.95
2023-04-10T00:09:25.054Z,7.65
2023-04-10T00:11:42.111Z,8.30
2023-04-10T00:13:59.177Z,8.73
2023-04-10T00:16:16.253Z,8.63
2023-04-10T00:18:33.510Z,8.20
2023-04-10T00:20:50.828Z,8.32
2023-04-10T00:23:07.846Z,8.13
2023-04-10T00:25:26.084Z,8.10
2023-04-10T00:27:43.333Z,8.50
2023-04-10T00:30:00.267Z,8.55
2023-04-10T00:32:18.353Z,8.50
2023-04-10T00:34:35.428Z,8.07
2023-04-10T00:36:54.868Z,8.95
2023-04-10T00:39:12.158Z,7.88
2023-04-10T00:41:29.072Z,8.10
2023-04-10T00:43:46.086Z,8.02
2023-04-10T00:46:04.379Z,8.23
2023-04-10T00:48:21.737Z,8.32
2023-04-10T00:50:38.624Z,8.60
2023-04-10T00:52:55.658Z,8.40
2023-04-10T00:55:12.946Z,8.38
2023-04-10T00:57:29.912Z,8.70
2023-04-10T00:59:46.970Z,8.55
2023-04-10T01:02:05.355Z,8.43
2023-04-10T01:04:22.733Z,8.80
2023-04-10T01:06:39.893Z,7.90
2023-04-10T01:08:56.958Z,8.50
2023-04-10T01:11:13.989Z,7.70
2023-04-10T01:13:30.830Z,8.05
2023-04-10T01:15:47.750Z,8.20
2023-04-10T01:18:04.830Z,7.82
2023-04-10T01:20:21.861Z,8.52
2023-04-10T01:22:38.805Z,8.23
2023-04-10T01:24:55.782Z,7.75
2023-04-10T01:27:12.749Z,7.88
2023-04-10T01:29:30.054Z,8.25
2023-04-10T01:31:47.102Z,8.10
2023-04-10T01:34:05.534Z,8.35
2023-04-10T01:36:22.605Z,8.30
2023-04-10T01:38:40.876Z,8.07
2023-04-10T01:40:58.038Z,7.97
2023-04-10T01:43:15.064Z,7.85
2023-04-10T01:45:32.004Z,7.88
2023-04-10T01:47:49.009Z,8.57
2023-04-10T01:50:06.232Z,7.75
2023-04-10T01:52:23.530Z,8.18
2023-04-10T01:54:40.544Z,8.18
2023-04-10T01:56:57.622Z,8.50
2023-04-10T01:59:14.913Z,7.53
2023-04-10T02:01:31.934Z,8.30
2023-04-10T02:03:49.089Z,8.50
2023-04-10T02:06:06.164Z,8.00
2023-04-10T02:08:23.232Z,8.23
2023-04-10T02:10:40.315Z,8.02
2023-04-10T02:12:58.359Z,8.15
2023-04-10T02:15:15.689Z,7.80
2023-04-10T02:17:32.815Z,7.97
2023-04-10T02:19:49.916Z,7.78
2023-04-10T02:22:06.870Z,8.35
2023-04-10T02:24:24.178Z,8.32
2023-04-10T02:26:41.133Z,8.15
2023-04-10T02:28:58.154Z,8.35
2023-04-10T02:31:15.147Z,7.90
2023-04-10T02:33:32.450Z,8.05
2023-04-10T02:35:49.432Z,8.50
2023-04-10T02:38:06.412Z,8.35
2023-04-10T02:40:23.666Z,8.65
2023-04-10T02:42:40.696Z,8.35
2023-04-10T02:44:57.772Z,8.27
2023-04-10T02:47:14.885Z,8.15
2023-04-10T02:49:32.196Z,7.70
2023-04-10T02:51:49.584Z,7.80
2023-04-10T02:54:06.584Z,7.97
2023-04-10T02:56:23.867Z,8.35
2023-04-10T02:58:40.895Z,8.23
2023-04-10T03:00:57.760Z,7.80
2023-04-10T03:03:15.138Z,7.97
2023-04-10T03:05:32.199Z,7.65
2023-04-10T03:07:49.273Z,8.02
2023-04-10T03:10:06.286Z,8.10
2023-04-10T03:12:23.180Z,8.07
2023-04-10T03:14:40.502Z,7.82
2023-04-10T03:16:57.467Z,8.43
2023-04-10T03:19:14.448Z,7.53
2023-04-10T03:21:31.395Z,7.40
2023-04-10T03:23:49.329Z,7.57
2023-04-10T03:26:06.174Z,8.32
2023-04-10T03:28:23.081Z,7.95
2023-04-10T03:30:40.981Z,7.88
2023-04-10T03:32:58.121Z,8.10
2023-04-10T03:35:15.062Z,8.13
2023-04-10T03:37:32.038Z,7.97
2023-04-10T03:39:49.020Z,7.75
2023-04-10T03:42:06.054Z,7.95
2023-04-10T03:44:22.990Z,7.63
2023-04-10T03:46:39.964Z,8.52
2023-04-10T03:48:57.268Z,7.90
2023-04-10T03:51:14.689Z,8.27
2023-04-10T03:53:32.924Z,8.27
2023-04-10T03:55:51.820Z,8.52
2023-04-10T03:58:08.861Z,7.95
2023-04-10T04:00:25.863Z,7.82
2023-04-10T04:02:43.025Z,7.20
2023-04-10T04:05:00.187Z,8.38
2023-04-10T04:07:17.215Z,7.25
2023-04-10T04:09:35.541Z,8.45
2023-04-10T04:11:52.603Z,8.50
2023-04-10T04:14:09.583Z,8.73
2023-04-10T04:16:26.525Z,7.65
2023-04-10T04:18:43.528Z,7.85
2023-04-10T04:21:00.447Z,8.05
2023-04-10T04:23:17.425Z,7.75
2023-04-10T04:25:34.646Z,7.57
2023-04-10T04:27:52.001Z,8.30
2023-04-10T04:30:10.328Z,8.55
2023-04-10T04:32:27.299Z,8.15
2023-04-10T04:34:44.335Z,8.38
2023-04-10T04:37:01.685Z,8.32
2023-04-10T04:39:18.614Z,7.80
2023-04-10T04:41:35.630Z,8.00
2023-04-10T04:43:52.963Z,8.43
2023-04-10T04:46:10.300Z,7.32
2023-04-10T04:48:27.325Z,8.07
2023-04-10T04:50:44.372Z,7.65
2023-04-10T04:53:01.573Z,7.82
2023-04-10T04:55:18.643Z,8.30
2023-04-10T04:57:35.665Z,8.25
2023-04-10T04:59:52.671Z,8.23
2023-04-10T05:02:09.646Z,7.88
2023-04-10T05:04:27.434Z,8.18
2023-04-10T05:06:44.574Z,8.45
2023-04-10T05:09:01.411Z,11.60
2023-04-10T05:11:18.347Z,9.35
2023-04-10T05:13:35.639Z,10.23
2023-04-10T05:15:54.781Z,8.75
2023-04-10T05:18:11.919Z,9.27
2023-04-10T05:20:28.864Z,9.70
2023-04-10T05:22:45.945Z,9.48
2023-04-10T05:25:02.840Z,9.75
2023-04-10T05:27:19.721Z,8.43
2023-04-10T05:29:37.748Z,9.98
2023-04-10T05:31:55.005Z,8.63
2023-04-10T05:34:11.909Z,8.65
2023-04-10T05:36:28.894Z,9.15
2023-04-10T05:38:46.171Z,9.23
2023-04-10T05:41:03.102Z,8.48
2023-04-10T05:43:20.110Z,8.63
2023-04-10T05:45:37.404Z,8.50
2023-04-10T05:47:54.658Z,9.18
2023-04-10T05:50:11.688Z,9.10
2023-04-10T05:52:28.639Z,8.80
2023-04-10T05:54:46.812Z,9.07
2023-04-10T05:57:03.790Z,8.90
2023-04-10T05:59:20.829Z,9.25
2023-04-10T06:01:37.742Z,8.98
2023-04-10T06:03:55.001Z,9.63
2023-04-10T06:06:12.189Z,9.32
2023-04-10T06:08:29.159Z,8.90
2023-04-10T06:10:46.424Z,9.52
2023-04-10T06:13:03.687Z,9.48
2023-04-10T06:15:20.879Z,9.25
2023-04-10T06:17:37.872Z,8.90
2023-04-10T06:19:56.191Z,8.80
2023-04-10T06:22:13.138Z,9.20
2023-04-10T06:24:30.058Z,9.07
2023-04-10T06:26:47.134Z,8.85
2023-04-10T06:29:04.032Z,9.05
2023-04-10T06:31:21.096Z,8.75
2023-04-10T06:33:38.032Z,8.50
2023-04-10T06:35:55.379Z,8.63
2023-04-10T06:38:12.341Z,8.77
2023-04-10T06:40:29.401Z,8.57
2023-04-10T06:42:47.453Z,8.80
2023-04-10T06:45:05.472Z,8.77
2023-04-10T06:47:23.477Z,9.63
2023-04-10T06:49:40.745Z,8.65
2023-04-10T06:51:57.783Z,8.50
2023-04-10T06:54:14.717Z,8.88
2023-04-10T06:56:31.774Z,8.73
2023-04-10T06:58:48.696Z,8.32
2023-04-10T07:01:05.603Z,9.15
2023-04-10T07:03:22.711Z,8.15
2023-04-10T07:05:42.071Z,9.70
2023-04-10T07:07:59.644Z,9.13
2023-04-10T07:10:16.732Z,8.77
2023-04-10T07:12:33.801Z,10.43
2023-04-10T07:14:50.698Z,9.80
2023-04-10T07:17:07.618Z,9.40
2023-04-10T07:19:24.623Z,9.38
2023-04-10T07:21:41.962Z,9.27
2023-04-10T07:23:58.863Z,9.05
2023-04-10T07:26:15.931Z,8.98
2023-04-10T07:28:32.989Z,9.32
2023-04-10T07:30:51.193Z,10.52
2023-04-10T07:33:08.675Z,9.88
2023-04-10T07:35:25.737Z,9.27
2023-04-10T07:37:42.687Z,9.40
2023-04-10T07:39:59.984Z,10.15
2023-04-10T07:42:16.859Z,9.68
2023-04-10T07:44:33.838Z,9.48
2023-04-10T07:46:50.911Z,9.18
2023-04-10T07:49:08.876Z,9.68
2023-04-10T07:51:26.141Z,8.95
2023-04-10T07:53:43.234Z,8.95
2023-04-10T07:56:00.251Z,9.38
2023-04-10T07:58:17.212Z,9.27
2023-04-10T08:00:34.247Z,9.38
2023-04-10T08:02:51.290Z,8.98
2023-04-10T08:05:08.583Z,9.93
2023-04-10T08:07:25.727Z,9.80
2023-04-10T08:09:42.784Z,9.13
2023-04-10T08:11:59.821Z,9.63
2023-04-10T08:14:18.206Z,8.93
2023-04-10T08:16:35.622Z,9.15
2023-04-10T08:18:52.811Z,9.27
2023-04-10T08:21:10.144Z,8.20
2023-04-10T08:23:27.160Z,8.10
2023-04-10T08:25:44.235Z,8.50
2023-04-10T08:28:01.484Z,8.70
2023-04-10T08:30:18.825Z,9.00
2023-04-10T08:32:36.111Z,8.45
2023-04-10T08:34:53.439Z,8.15
2023-04-10T08:37:11.908Z,7.63
2023-04-10T08:39:29.912Z,7.65
2023-04-10T08:41:46.939Z,7.70
2023-04-10T08:44:04.256Z,7.80
2023-04-10T08:46:21.356Z,7.22
2023-04-10T08:48:39.349Z,7.28
2023-04-10T08:50:56.583Z,7.22
2023-04-10T08:53:13.650Z,6.80
2023-04-10T08:55:30.576Z,6.35
2023-04-10T08:57:54.321Z,6.90
2023-04-10T09:02:54.809Z,6.53
2023-04-10T09:05:11.787Z,6.65
2023-04-10T09:07:28.786Z,6.35
2023-04-10T09:09:46.725Z,5.80
2023-04-10T09:12:04.029Z,6.13
2023-04-10T09:14:21.296Z,6.05
2023-04-10T09:16:38.307Z,6.32
2023-04-10T09:18:55.340Z,5.97
2023-04-10T09:21:12.256Z,5.68
2023-04-10T09:23:29.241Z,5.85
2023-04-10T09:25:46.281Z,5.53
2023-04-10T09:28:03.297Z,5.60
2023-04-10T09:30:20.404Z,5.03
2023-04-10T09:32:37.391Z,5.45
2023-04-10T09:34:54.630Z,5.38
2023-04-10T09:37:11.647Z,5.18
2023-04-10T09:39:28.947Z,4.70
2023-04-10T09:41:45.803Z,4.90
2023-04-10T09:44:03.049Z,5.20
2023-04-10T09:46:20.073Z,4.88
2023-04-10T09:48:37.041Z,4.97
2023-04-10T09:50:54.048Z,4.45
2023-04-10T09:53:11.302Z,4.60
2023-04-10T09:55:28.353Z,4.43
2023-04-10T09:57:46.872Z,4.70
2023-04-10T10:00:03.906Z,50.20
2023-04-10T10:02:20.954Z,19.45
2023-04-10T10:04:37.981Z,12.70
2023-04-10T10:06:54.876Z,5.03
2023-04-10T10:09:11.957Z,4.88
2023-04-10T10:11:29.078Z,4.75
2023-04-10T10:13:46.321Z,4.35
2023-04-10T10:16:03.474Z,4.18
2023-04-10T10:18:20.552Z,4.07
2023-04-10T10:20:37.614Z,4.35
2023-04-10T10:22:54.875Z,4.20
2023-04-10T10:25:11.799Z,4.00
2023-04-10T10:27:29.032Z,3.83
2023-04-10T10:29:47.048Z,3.78
2023-04-10T10:32:04.058Z,3.58
2023-04-10T10:34:20.912Z,4.05
2023-04-10T10:36:37.906Z,3.95
2023-04-10T10:38:55.533Z,3.70
2023-04-10T10:41:13.908Z,3.65
2023-04-10T10:43:30.852Z,3.65
2023-04-10T10:45:47.985Z,3.90
2023-04-10T10:48:05.081Z,3.47
2023-04-10T10:50:23.478Z,3.58
2023-04-10T10:52:41.824Z,3.70
2023-04-10T10:54:59.632Z,3.40
2023-04-10T10:57:16.953Z,3.53
2023-04-10T10:59:34.023Z,3.42
2023-04-10T11:01:51.187Z,3.35
2023-04-10T11:04:08.375Z,3.33
2023-04-10T11:06:25.390Z,3.13
2023-04-10T11:08:42.468Z,3.20
2023-04-10T11:10:59.737Z,3.25
2023-04-10T11:13:17.025Z,3.10
2023-04-10T11:15:33.975Z,3.33
2023-04-10T11:17:51.115Z,2.80
2023-04-10T11:20:08.625Z,2.72
2023-04-10T11:22:26.693Z,2.70
2023-04-10T11:24:43.692Z,2.90
2023-04-10T11:27:00.617Z,2.50
2023-04-10T11:29:17.963Z,2.67
2023-04-10T11:31:34.936Z,2.63
2023-04-10T11:33:52.139Z,2.80
2023-04-10T11:36:10.139Z,2.70
2023-04-10T11:38:27.488Z,2.60
2023-04-10T11:40:44.508Z,2.28
2023-04-10T11:43:01.492Z,2.55
2023-04-10T11:45:18.730Z,2.50
2023-04-10T11:47:35.683Z,2.53
2023-04-10T11:49:52.780Z,2.35
2023-04-10T11:52:09.779Z,2.85
2023-04-10T11:54:27.638Z,2.70
2023-04-10T11:56:44.910Z,3.90
2023-04-10T11:59:01.976Z,2.90
2023-04-10T12:01:18.963Z,2.60
2023-04-10T12:03:36.353Z,2.20
2023-04-10T12:05:53.381Z,2.25
2023-04-10T12:08:10.352Z,2.30
2023-04-10T12:10:27.291Z,2.08
2023-04-10T12:12:44.300Z,2.00
2023-04-10T12:15:01.523Z,2.40
2023-04-10T12:17:18.795Z,2.10
2023-04-10T12:19:35.828Z,2.00
2023-04-10T12:21:53.053Z,1.90
2023-04-10T12:24:10.137Z,1.70
2023-04-10T12:26:27.092Z,1.60
2023-04-10T12:28:44.019Z,1.80
2023-04-10T12:31:00.962Z,1.80
2023-04-10T12:33:18.034Z,1.90
2023-04-10T12:35:34.980Z,1.55
2023-04-10T12:37:51.902Z,1.80
2023-04-10T12:40:08.898Z,1.40
2023-04-10T12:42:25.977Z,1.70
2023-04-10T12:44:43.906Z,1.70
2023-04-10T12:47:00.943Z,1.90
2023-04-10T12:49:17.906Z,1.60
2023-04-10T12:51:35.170Z,1.50
2023-04-10T12:53:52.200Z,1.60
2023-04-10T12:56:09.134Z,1.95
2023-04-10T12:58:26.007Z,1.95
2023-04-10T13:00:42.968Z,1.67
2023-04-10T13:03:00.025Z,1.60
2023-04-10T13:05:17.528Z,1.88
2023-04-10T13:07:34.803Z,1.98
2023-04-10T13:09:52.757Z,1.75
2023-04-10T13:12:09.678Z,2.20
2023-04-10T13:14:27.712Z,2.30
2023-04-10T13:16:44.797Z,2.80
2023-04-10T13:19:01.896Z,2.80
2023-04-10T13:21:18.974Z,2.60
2023-04-10T13:23:36.203Z,3.25
2023-04-10T13:25:53.190Z,2.70
2023-04-10T13:28:10.455Z,3.22
2023-04-10T13:30:27.432Z,2.67
2023-04-10T13:32:44.342Z,2.70
2023-04-10T13:35:01.272Z,2.17
2023-04-10T13:37:18.311Z,2.47
2023-04-10T13:39:35.205Z,2.40
2023-04-10T13:41:53.074Z,2.30
2023-04-10T13:44:10.110Z,2.30
2023-04-10T13:46:27.355Z,2.40
2023-04-10T13:48:44.364Z,2.42
2023-04-10T13:51:01.692Z,2.28
2023-04-10T13:53:18.602Z,2.40
2023-04-10T13:55:35.651Z,2.75
2023-04-10T13:57:52.566Z,2.50
2023-04-10T14:00:09.537Z,2.50
2023-04-10T14:02:26.613Z,2.63
2023-04-10T14:04:44.017Z,2.60
2023-04-10T14:07:01.236Z,2.75
2023-04-10T14:09:18.529Z,2.38
2023-04-10T14:11:35.504Z,3.00
2023-04-10T14:13:52.616Z,2.88
2023-04-10T14:16:09.680Z,2.53
2023-04-10T14:18:26.962Z,2.97
2023-04-10T14:20:44.187Z,2.65
2023-04-10T14:23:01.361Z,2.92
2023-04-10T14:25:18.390Z,2.83
2023-04-10T14:27:35.376Z,2.50
2023-04-10T14:29:55.059Z,2.60
2023-04-10T14:32:12.336Z,2.80
2023-04-10T14:34:29.297Z,2.70
2023-04-10T14:36:46.310Z,2.92
2023-04-10T14:39:03.590Z,2.60
2023-04-10T14:41:20.518Z,2.50
2023-04-10T14:43:37.740Z,2.90
2023-04-10T14:45:54.577Z,3.13
2023-04-10T14:48:12.687Z,2.83
2023-04-10T14:50:30.385Z,2.75
2023-04-10T14:52:53.582Z,2.85
2023-04-10T14:55:10.682Z,2.78
2023-04-10T14:57:27.747Z,2.65
2023-04-10T14:59:45.811Z,3.03
2023-04-10T15:02:03.106Z,2.63
2023-04-10T15:04:19.990Z,2.70
2023-04-10T15:06:36.908Z,2.50
2023-04-10T15:08:53.962Z,2.50
2023-04-10T15:11:10.954Z,3.08
2023-04-10T15:13:27.972Z,2.28
2023-04-10T15:15:44.954Z,2.78
2023-04-10T15:18:02.377Z,4.03
2023-04-10T15:20:19.413Z,4.70
2023-04-10T15:22:37.383Z,3.40
2023-04-10T15:24:54.651Z,2.70
2023-04-10T15:27:11.581Z,2.67
2023-04-10T15:29:28.632Z,2.63
2023-04-10T15:31:45.595Z,2.10
2023-04-10T15:34:02.786Z,2.92
2023-04-10T15:36:20.064Z,4.30
2023-04-10T15:38:37.082Z,3.53
2023-04-10T15:40:54.354Z,2.50
2023-04-10T15:43:11.581Z,2.15
2023-04-10T15:45:29.664Z,1.95
2023-04-10T15:47:46.923Z,2.22
2023-04-10T15:50:04.225Z,2.10
2023-04-10T15:52:21.462Z,2.13
2023-04-10T15:54:38.390Z,2.15
2023-04-10T15:56:55.272Z,2.45
2023-04-10T15:59:12.240Z,2.28
2023-04-10T16:01:29.646Z,2.15
2023-04-10T16:03:47.089Z,2.50
2023-04-10T16:06:04.461Z,2.40
2023-04-10T16:08:21.492Z,2.20
2023-04-10T16:10:38.723Z,2.35
2023-04-10T16:12:55.764Z,2.70
2023-04-10T16:15:12.705Z,2.90
2023-04-10T16:17:30.031Z,3.00
2023-04-10T16:19:47.315Z,2.75
2023-04-10T16:22:04.430Z,2.50
2023-04-10T16:24:21.374Z,2.55
2023-04-10T16:26:38.683Z,2.40
2023-04-10T16:28:56.162Z,2.60
2023-04-10T16:31:13.879Z,2.50
2023-04-10T16:33:30.789Z,2.20
2023-04-10T16:35:47.672Z,2.30
2023-04-10T16:38:04.770Z,2.40
2023-04-10T16:40:23.094Z,2.28
2023-04-10T16:42:40.112Z,2.28
2023-04-10T16:44:57.147Z,2.78
2023-04-10T16:47:14.283Z,2.70
2023-04-10T16:49:31.632Z,2.80
2023-04-10T16:51:48.687Z,2.25
2023-04-10T16:54:05.896Z,2.80
2023-04-10T16:56:22.870Z,2.50
2023-04-10T16:58:39.900Z,2.50
2023-04-10T17:00:57.900Z,2.70
2023-04-10T17:03:15.895Z,2.50
2023-04-10T17:05:33.094Z,2.28
2023-04-10T17:07:50.176Z,2.90
2023-04-10T17:10:07.139Z,3.38
2023-04-10T17:12:24.368Z,3.42
2023-04-10T17:14:42.614Z,3.03
2023-04-10T17:17:00.047Z,3.25
2023-04-10T17:19:17.133Z,2.58
2023-04-10T17:21:34.041Z,2.85
2023-04-10T17:23:51.403Z,2.70
2023-04-10T17:26:08.686Z,2.80
2023-04-10T17:28:25.750Z,2.80
2023-04-10T17:30:42.662Z,2.80
2023-04-10T17:32:59.633Z,2.60
2023-04-10T17:35:16.607Z,2.75
2023-04-10T17:37:34.016Z,2.70
2023-04-10T17:39:51.358Z,2.45
2023-04-10T17:42:08.678Z,2.63
2023-04-10T17:44:26.014Z,2.45
2023-04-10T17:46:42.912Z,2.70
2023-04-10T17:49:00.376Z,2.60
2023-04-10T17:51:17.799Z,3.30
2023-04-10T17:53:35.103Z,3.40
2023-04-10T17:55:52.200Z,3.40
2023-04-10T17:58:09.133Z,2.80
2023-04-10T18:00:26.159Z,2.80
2023-04-10T18:02:43.664Z,2.47
2023-04-10T18:05:00.688Z,2.75
2023-04-10T18:07:18.561Z,2.60
2023-04-10T18:09:35.893Z,2.40
2023-04-10T18:11:54.185Z,2.88
2023-04-10T18:14:11.490Z,2.45
2023-04-10T18:16:28.504Z,2.78
2023-04-10T18:18:45.418Z,2.63
2023-04-10T18:21:02.707Z,2.58
2023-04-10T18:23:19.614Z,2.72
2023-04-10T18:25:36.896Z,3.13
2023-04-10T18:28:13.173Z,4.13
2023-04-10T18:30:31.156Z,4.00
2023-04-10T18:32:48.260Z,3.72
2023-04-10T18:35:06.287Z,4.00
2023-04-10T18:37:23.644Z,4.00
2023-04-10T18:39:40.831Z,3.60
2023-04-10T18:41:57.746Z,3.88
2023-04-10T18:44:14.589Z,4.00
2023-04-10T18:46:31.570Z,4.18
2023-04-10T18:48:48.630Z,3.85
2023-04-10T18:51:05.951Z,3.97
2023-04-10T18:53:24.298Z,3.70
2023-04-10T18:55:41.229Z,3.80
2023-04-10T18:57:59.534Z,4.07
2023-04-10T19:00:16.813Z,4.03
2023-04-10T19:02:34.264Z,4.15
2023-04-10T19:04:51.499Z,4.38
2023-04-10T19:07:08.521Z,3.90
2023-04-10T19:09:25.469Z,4.00
2023-04-10T19:11:42.419Z,3.85
2023-04-10T19:13:59.738Z,3.88
2023-04-10T19:16:16.770Z,3.90
2023-04-10T19:18:34.134Z,3.92
2023-04-10T19:20:53.183Z,3.92
2023-04-10T19:23:10.483Z,3.97
2023-04-10T19:25:27.459Z,4.13
2023-04-10T19:27:44.501Z,4.18
2023-04-10T19:30:01.492Z,4.32
2023-04-10T19:32:19.468Z,4.32
2023-04-10T19:34:36.877Z,4.57
2023-04-10T19:36:54.204Z,4.25
2023-04-10T19:39:11.588Z,4.07
2023-04-10T19:41:28.573Z,4.47
2023-04-10T19:43:45.616Z,4.30
2023-04-10T19:46:02.956Z,4.10
2023-04-10T19:48:19.883Z,4.00
2023-04-10T19:50:36.800Z,3.85
2023-04-10T19:52:54.194Z,3.70
2023-04-10T19:55:11.567Z,4.40
2023-04-10T19:57:28.502Z,4.20
2023-04-10T19:59:45.742Z,5.20
2023-04-10T20:02:02.812Z,4.43
2023-04-10T20:04:19.776Z,4.00
2023-04-10T20:06:36.879Z,4.57
2023-04-10T20:08:54.506Z,4.07
2023-04-10T20:11:11.587Z,4.30
2023-04-10T20:13:28.698Z,3.72
2023-04-10T20:15:46.002Z,4.07
2023-04-10T20:18:02.926Z,4.18
2023-04-10T20:20:20.024Z,4.22
2023-04-10T20:22:36.985Z,4.90
2023-04-10T20:24:53.871Z,4.50
2023-04-10T20:27:11.136Z,4.57
2023-04-10T20:29:29.063Z,4.43
2023-04-10T20:31:47.009Z,4.32
2023-04-10T20:34:04.367Z,4.63
2023-04-10T20:36:21.715Z,4.30
2023-04-10T20:38:38.985Z,4.18
2023-04-10T20:40:55.884Z,4.10
2023-04-10T20:43:12.896Z,4.32
2023-04-10T20:45:30.217Z,4.20
2023-04-10T20:47:47.223Z,3.90
2023-04-10T20:50:04.600Z,3.67
2023-04-10T20:52:21.647Z,3.95
2023-04-10T20:54:39.830Z,3.80
2023-04-10T20:56:56.798Z,3.92
2023-04-10T20:59:13.773Z,3.80
2023-04-10T21:01:30.910Z,3.60
2023-04-10T21:03:49.399Z,3.35
2023-04-10T21:06:06.629Z,3.70
2023-04-10T21:08:23.852Z,3.60
2023-04-10T21:10:40.921Z,3.45
2023-04-10T21:12:57.939Z,3.42
2023-04-10T21:15:14.871Z,3.63
2023-04-10T21:17:33.050Z,3.38
2023-04-10T21:19:50.415Z,3.25
2023-04-10T21:22:07.470Z,3.40
2023-04-10T21:24:24.427Z,2.97
2023-04-10T21:26:41.450Z,3.38
2023-04-10T21:28:58.473Z,3.08
2023-04-10T21:31:15.494Z,3.22
2023-04-10T21:33:32.570Z,2.83
2023-04-10T21:35:49.900Z,3.35
2023-04-10T21:38:07.896Z,3.42
2023-04-10T21:40:25.209Z,3.38
2023-04-10T21:42:42.487Z,3.20
2023-04-10T21:44:59.424Z,3.60
2023-04-10T21:47:16.375Z,3.50
2023-04-10T21:49:33.667Z,3.60
2023-04-10T21:51:50.808Z,4.03
2023-04-10T21:54:07.802Z,3.63
2023-04-10T21:56:24.680Z,3.58
2023-04-10T21:58:41.595Z,3.55
2023-04-10T22:00:58.601Z,3.65
2023-04-10T22:03:15.690Z,3.80
2023-04-10T22:05:33.622Z,3.60
2023-04-10T22:07:50.873Z,3.92
2023-04-10T22:10:07.924Z,3.75
2023-04-10T22:12:26.133Z,4.07
2023-04-10T22:14:43.124Z,3.53
2023-04-10T22:17:00.153Z,3.67
2023-04-10T22:19:17.168Z,3.60
2023-04-10T22:21:34.204Z,3.70
2023-04-10T22:23:51.241Z,4.28
2023-04-10T22:26:08.567Z,3.92
2023-04-10T22:28:25.883Z,3.88
2023-04-10T22:30:42.995Z,3.55
2023-04-10T22:33:00.451Z,3.70
2023-04-10T22:35:17.774Z,3.70
2023-04-10T22:37:35.168Z,4.13
2023-04-10T22:39:52.403Z,3.63
2023-04-10T22:42:09.284Z,3.80
2023-04-10T22:44:27.194Z,2.97
2023-04-10T22:46:44.187Z,2.30
2023-04-10T22:49:01.451Z,2.20
2023-04-10T22:51:18.532Z,1.95
2023-04-10T22:53:35.585Z,1.95
2023-04-10T22:55:52.937Z,1.90
2023-04-10T22:58:09.827Z,1.70
2023-04-10T23:00:27.157Z,1.67
2023-04-10T23:02:44.161Z,1.83
2023-04-10T23:05:01.218Z,1.35
2023-04-10T23:07:18.482Z,1.27
2023-04-10T23:09:35.452Z,1.08
2023-04-10T23:11:52.697Z,1.15
2023-04-10T23:14:10.077Z,0.90
2023-04-10T23:16:27.107Z,0.85
2023-04-10T23:18:44.348Z,1.00
2023-04-10T23:21:01.356Z,0.80
2023-04-10T23:23:18.314Z,0.80
2023-04-10T23:25:35.550Z,0.60
2023-04-10T23:27:52.483Z,0.80
2023-04-10T23:30:09.787Z,0.68
2023-04-10T23:32:26.757Z,0.50
2023-04-10T23:34:44.037Z,0.80
2023-04-10T23:37:00.968Z,0.70
2023-04-10T23:39:18.310Z,0.50
2023-04-10T23:41:35.281Z,0.60
2023-04-10T23:43:52.562Z,0.80
2023-04-10T23:46:09.521Z,0.65
2023-04-10T23:48:26.904Z,0.65
2023-04-10T23:50:43.912Z,0.70
2023-04-10T23:53:00.906Z,0.80
2023-04-10T23:55:17.842Z,0.68
2023-04-10T23:57:35.152Z,0.60
2023-04-10T23:59:52.268Z,1.00
